C6041 KNBG-KNBG
Flight info
| Callsign | C6041 |
|---|---|
| Flight time | 0h 6m |
| Altitude | 1500 |
| Route | VFR COASTAL PATROL |
| Aircraft | H60/M-SDFGIRY/S |
Departure
| Time | 2026-04-28 06:25 |
|---|---|
| Airport | New Orleans NAS JRB/Alvin Callender Field (KNBG) |
Arrival
| Time | 2026-04-28 06:32 |
|---|---|
| Airport | New Orleans NAS JRB/Alvin Callender Field (KNBG) |
| Time | Latitude | Longitude | Altitude | Speed | Heading |
|---|---|---|---|---|---|
| 2026-04-28 06:19 | 29.82157 | -90.02595 | 9 ft | 0 kts | 322° |
| 2026-04-28 06:25 | 29.82158 | -90.02594 | 21 ft | 0 kts | 317° |
| 2026-04-28 06:25 | 29.82183 | -90.02579 | 374 ft | 14 kts | 11° |
| 2026-04-28 06:25 | 29.81943 | -90.02224 | 653 ft | 104 kts | 148° |
| 2026-04-28 06:26 | 29.81282 | -90.01561 | 725 ft | 135 kts | 146° |
| 2026-04-28 06:26 | 29.80442 | -90.01072 | 684 ft | 140 kts | 171° |
| 2026-04-28 06:26 | 29.79435 | -90.01323 | 574 ft | 166 kts | 202° |
| 2026-04-28 06:26 | 29.78344 | -90.01903 | 442 ft | 174 kts | 201° |
| 2026-04-28 06:27 | 29.77205 | -90.02274 | 611 ft | 169 kts | 191° |
| 2026-04-28 06:27 | 29.76017 | -90.02217 | 584 ft | 174 kts | 174° |
| 2026-04-28 06:27 | 29.74965 | -90.01654 | 513 ft | 148 kts | 142° |
| 2026-04-28 06:27 | 29.74309 | -90.00921 | 584 ft | 119 kts | 137° |
| 2026-04-28 06:28 | 29.73814 | -90.00224 | 583 ft | 104 kts | 134° |
| 2026-04-28 06:28 | 29.73352 | -89.99718 | 760 ft | 88 kts | 152° |
| 2026-04-28 06:28 | 29.72865 | -89.99281 | 852 ft | 90 kts | 150° |
| 2026-04-28 06:28 | 29.72335 | -89.98858 | 848 ft | 98 kts | 155° |
| 2026-04-28 06:29 | 29.72274 | -89.99328 | 696 ft | 149 kts | 323° |
| 2026-04-28 06:29 | 29.73221 | -89.99965 | 829 ft | 160 kts | 330° |
| 2026-04-28 06:29 | 29.74091 | -90.00805 | 245 ft | 156 kts | 316° |
| 2026-04-28 06:29 | 29.74840 | -90.01620 | 315 ft | 145 kts | 320° |
| 2026-04-28 06:30 | 29.75651 | -90.02244 | 260 ft | 133 kts | 342° |
| 2026-04-28 06:30 | 29.76543 | -90.02273 | 465 ft | 131 kts | 12° |
| 2026-04-28 06:30 | 29.77165 | -90.02143 | 463 ft | 143 kts | 15° |
| 2026-04-28 06:30 | 29.78140 | -90.01908 | 400 ft | 139 kts | 18° |
| 2026-04-28 06:31 | 29.79281 | -90.01555 | 527 ft | 126 kts | 27° |
| 2026-04-28 06:31 | 29.80068 | -90.01046 | 214 ft | 125 kts | 29° |
| 2026-04-28 06:31 | 29.80792 | -90.01204 | 225 ft | 91 kts | 314° |
| 2026-04-28 06:31 | 29.81105 | -90.01637 | 338 ft | 65 kts | 323° |
| 2026-04-28 06:32 | 29.81360 | -90.01852 | 303 ft | 70 kts | 330° |
| 2026-04-28 06:32 | 29.81727 | -90.02210 | 248 ft | 70 kts | 325° |
| 2026-04-28 06:32 | 29.81998 | -90.02479 | 49 ft | 25 kts | 338° |
| 2026-04-28 06:32 | 29.82071 | -90.02522 | 28 ft | 7 kts | 327° |
| 2026-04-28 06:33 | 29.82060 | -90.02525 | 53 ft | 7 kts | 319° |
| 2026-04-28 06:33 | 29.82139 | -90.02579 | 20 ft | 8 kts | 326° |
| 2026-04-28 06:33 | 29.82159 | -90.02597 | 9 ft | 0 kts | 319° |
| 2026-04-28 06:33 | 29.82157 | -90.02596 | 9 ft | 0 kts | 320° |